Time;durP1;ratioP1;P1;durP2;ratioP2;P2;SDS_P1;SDS_P2;PMS_P1;PMS_P2;Temp;Humidity;BMP_temperature;BMP_pressure;BME280_temperature;BME280_humidity;BME280_pressure;Samples;Min_cycle;Max_cycle;Signal;HPM_P1;HPM_P2
2022/09/19 00:01:29;;;;;;;4.15;0.50;;;6.90;99.90;;;;;;5080723;28;20050;-84
2022/09/19 00:04:02;;;;;;;4.57;0.60;;;6.90;99.90;;;;;;5079981;28;20032;-83
2022/09/19 00:06:29;;;;;;;0.40;0.40;;;6.90;99.90;;;;;;5066782;28;20036;-83
2022/09/19 00:08:56;;;;;;;4.97;0.40;;;6.90;99.90;;;;;;5092125;28;20750;-83
2022/09/19 00:11:24;;;;;;;0.45;0.40;;;6.80;99.90;;;;;;5071711;28;20508;-83
2022/09/19 00:13:52;;;;;;;1.63;0.50;;;6.90;99.90;;;;;;5067111;28;20040;-83
2022/09/19 00:16:28;;;;;;;1.33;0.70;;;6.80;99.90;;;;;;5091494;28;20042;-83
2022/09/19 00:18:57;;;;;;;2.08;0.38;;;6.80;99.90;;;;;;5074727;28;20249;-83
2022/09/19 00:21:32;;;;;;;0.65;0.40;;;6.80;99.90;;;;;;5085901;28;20036;-83
2022/09/19 00:26:45;;;;;;;0.50;0.47;;;6.80;99.90;;;;;;5089586;28;20088;-83
2022/09/19 00:29:12;;;;;;;1.90;0.50;;;6.80;99.90;;;;;;5074836;28;20069;-83
2022/09/19 00:31:38;;;;;;;0.95;0.30;;;6.80;99.90;;;;;;5090858;28;20511;-83
2022/09/19 00:34:08;;;;;;;0.75;0.47;;;6.80;99.90;;;;;;5057718;28;20032;-82
2022/09/19 00:36:34;;;;;;;10.40;1.08;;;6.80;99.90;;;;;;5070847;28;20028;-83
2022/09/19 00:39:00;;;;;;;28.27;1.10;;;6.90;99.90;;;;;;5041169;28;20047;-85
2022/09/19 00:41:26;;;;;;;7.30;0.70;;;6.90;99.90;;;;;;5054097;28;20066;-83
2022/09/19 00:43:59;;;;;;;0.30;0.30;;;6.90;99.90;;;;;;5089268;28;20139;-83
2022/09/19 00:46:27;;;;;;;0.70;0.40;;;6.90;99.90;;;;;;5064338;28;20024;-82
2022/09/19 00:48:57;;;;;;;1.63;0.50;;;6.90;99.90;;;;;;5054513;28;20033;-83
2022/09/19 00:51:31;;;;;;;0.40;0.35;;;6.90;99.90;;;;;;5071852;28;20081;-83
2022/09/19 00:54:00;;;;;;;3.67;0.55;;;6.90;99.90;;;;;;5084120;28;20103;-83
2022/09/19 00:56:27;;;;;;;0.50;0.50;;;6.90;99.90;;;;;;5087441;28;20544;-83
2022/09/19 00:58:54;;;;;;;11.63;0.77;;;6.90;99.90;;;;;;5082503;28;20131;-83
2022/09/19 01:01:20;;;;;;;2.78;0.50;;;6.90;99.90;;;;;;5054689;28;20451;-82
2022/09/19 01:03:46;;;;;;;1.25;0.63;;;6.90;99.90;;;;;;5071749;28;20039;-83
2022/09/19 01:06:23;;;;;;;0.50;0.50;;;6.90;99.90;;;;;;5062919;28;20028;-82
2022/09/19 01:09:14;;;;;;;17.05;1.23;;;6.90;99.90;;;;;;5089275;28;20062;-83
2022/09/19 01:11:58;;;;;;;0.95;0.65;;;6.90;99.90;;;;;;5086289;28;20048;-83
2022/09/19 01:15:03;;;;;;;1.13;0.60;;;6.90;99.90;;;;;;5070744;28;20028;-82
2022/09/19 01:17:45;;;;;;;1.58;0.80;;;6.90;99.90;;;;;;5086998;28;20052;-83
2022/09/19 01:20:30;;;;;;;1.55;0.60;;;6.90;99.90;;;;;;5077272;28;20032;-83
2022/09/19 01:23:15;;;;;;;2.60;0.80;;;6.90;99.90;;;;;;5088557;28;20081;-83
2022/09/19 01:25:59;;;;;;;2.63;0.70;;;6.90;99.90;;;;;;5089123;28;20043;-84
2022/09/19 01:28:34;;;;;;;2.83;0.73;;;6.90;99.90;;;;;;5089438;28;20111;-83
2022/09/19 01:31:20;;;;;;;1.55;0.70;;;6.90;99.90;;;;;;5080738;28;20024;-84
2022/09/19 01:33:53;;;;;;;;;;;6.90;99.90;;;;;;5054395;28;20132;-82
2022/09/19 01:36:23;;;;;;;0.98;0.63;;;6.90;99.90;;;;;;5086594;28;19920;-82
2022/09/19 01:38:51;;;;;;;15.20;0.90;;;6.90;99.90;;;;;;5053665;28;20086;-81
2022/09/19 01:41:20;;;;;;;3.90;0.45;;;6.90;99.90;;;;;;5067589;28;20032;-81
2022/09/19 01:43:48;;;;;;;0.47;0.45;;;6.90;99.90;;;;;;5056936;28;20657;-81
2022/09/19 01:46:56;;;;;;;4.13;0.60;;;6.90;99.90;;;;;;5050201;28;20070;-81
2022/09/19 01:49:26;;;;;;;1.63;0.85;;;6.90;99.90;;;;;;5071615;28;20429;-81
2022/09/19 01:52:04;;;;;;;1.50;0.47;;;6.90;99.90;;;;;;5090356;28;20131;-81
2022/09/19 01:54:43;;;;;;;0.60;0.60;;;6.90;99.90;;;;;;5066920;28;20032;-82
2022/09/19 01:57:21;;;;;;;1.77;0.70;;;6.90;99.90;;;;;;5088279;28;20165;-81
2022/09/19 02:00:03;;;;;;;2.20;1.08;;;6.90;99.90;;;;;;5087207;28;20027;-82
2022/09/19 02:02:56;;;;;;;1.15;0.75;;;6.90;99.90;;;;;;5078940;28;20042;-81
2022/09/19 02:05:31;;;;;;;2.20;0.68;;;6.90;99.90;;;;;;5076566;28;20119;-82
2022/09/19 02:08:04;;;;;;;0.70;0.70;;;6.90;99.90;;;;;;5080508;28;20165;-81
2022/09/19 02:10:49;;;;;;;9.43;1.15;;;6.90;99.90;;;;;;5069914;28;20040;-81
2022/09/19 02:13:21;;;;;;;1.00;0.90;;;6.90;99.90;;;;;;5066701;28;20021;-82
2022/09/19 02:16:10;;;;;;;2.22;1.00;;;6.90;99.90;;;;;;5079702;28;20021;-82
2022/09/19 02:18:48;;;;;;;14.57;1.60;;;6.90;99.90;;;;;;5073720;28;20115;-81
2022/09/19 02:21:20;;;;;;;3.28;1.10;;;6.90;99.90;;;;;;5066707;28;20024;-83
2022/09/19 02:23:51;;;;;;;2.45;1.35;;;7.00;99.90;;;;;;5055101;28;20028;-82
2022/09/19 02:26:20;;;;;;;4.80;1.45;;;7.00;99.90;;;;;;5070925;28;20043;-82
2022/09/19 02:28:54;;;;;;;7.38;1.20;;;7.00;99.90;;;;;;5040955;28;20489;-81
2022/09/19 02:31:24;;;;;;;23.98;1.83;;;7.00;99.90;;;;;;5069789;28;20169;-81
2022/09/19 02:33:52;;;;;;;20.60;1.65;;;7.00;99.90;;;;;;5037924;28;20025;-83
2022/09/19 02:36:30;;;;;;;2.00;0.98;;;7.00;99.90;;;;;;5055644;28;20036;-83
2022/09/19 02:39:27;;;;;;;1.35;1.10;;;7.00;99.90;;;;;;5071045;28;20020;-83
2022/09/19 02:42:23;;;;;;;33.30;2.17;;;7.00;99.90;;;;;;5068066;28;20119;-83
2022/09/19 02:45:09;;;;;;;0.88;0.88;;;7.00;99.90;;;;;;5053503;28;20020;-82
2022/09/19 02:47:51;;;;;;;4.78;1.40;;;7.00;99.90;;;;;;5070718;28;20059;-83
2022/09/19 02:50:31;;;;;;;1.25;1.15;;;7.10;99.90;;;;;;5068807;28;20028;-84
2022/09/19 02:53:00;;;;;;;2.92;1.17;;;7.00;99.90;;;;;;5070287;28;20016;-82
2022/09/19 02:55:31;;;;;;;2.38;1.45;;;7.00;99.90;;;;;;5061027;28;20043;-83
2022/09/19 02:58:00;;;;;;;2.78;1.17;;;7.10;99.90;;;;;;5072326;28;20043;-83
2022/09/19 03:00:31;;;;;;;17.17;1.70;;;7.10;99.90;;;;;;5056950;28;20037;-83
2022/09/19 03:06:07;;;;;;;10.10;1.60;;;7.10;99.90;;;;;;5075937;28;20039;-83
2022/09/19 03:08:36;;;;;;;4.68;1.25;;;7.10;99.90;;;;;;5059499;28;20032;-83
2022/09/19 03:11:09;;;;;;;1.45;1.20;;;7.10;99.90;;;;;;5054692;28;20076;-82
2022/09/19 03:13:38;;;;;;;3.65;1.50;;;7.20;99.90;;;;;;5078250;28;20024;-83
2022/09/19 03:16:16;;;;;;;2.53;1.25;;;7.10;99.90;;;;;;5060516;28;20497;-82
2022/09/19 03:18:46;;;;;;;1.52;1.42;;;7.10;99.90;;;;;;5077352;28;20031;-82
2022/09/19 03:21:20;;;;;;;3.60;1.60;;;7.20;99.90;;;;;;5064448;28;20113;-82
2022/09/19 03:23:48;;;;;;;1.40;1.30;;;7.20;99.90;;;;;;5059040;28;20032;-84
2022/09/19 03:26:25;;;;;;;2.33;1.48;;;7.20;99.90;;;;;;5052754;28;20032;-83
2022/09/19 03:28:54;;;;;;;2.90;1.50;;;7.20;99.90;;;;;;5060321;28;20024;-83
2022/09/19 03:31:20;;;;;;;3.80;1.33;;;7.20;99.90;;;;;;5074532;28;20028;-83
2022/09/19 03:33:46;;;;;;;2.10;1.60;;;7.20;99.90;;;;;;5071038;28;20032;-82
2022/09/19 03:36:12;;;;;;;1.52;1.42;;;7.20;99.90;;;;;;5045835;28;20036;-83
2022/09/19 03:38:44;;;;;;;2.95;1.60;;;7.20;99.90;;;;;;5029669;28;20036;-83
2022/09/19 03:41:18;;;;;;;7.05;1.70;;;7.30;99.90;;;;;;5063364;28;20028;-83
2022/09/19 03:43:44;;;;;;;2.45;1.60;;;7.30;99.90;;;;;;5052959;28;20028;-84
2022/09/19 03:46:15;;;;;;;1.90;1.80;;;7.20;99.90;;;;;;5063714;28;20024;-84
2022/09/19 03:48:45;;;;;;;2.45;1.20;;;7.30;99.90;;;;;;5073727;28;20020;-83
2022/09/19 03:51:12;;;;;;;1.60;1.50;;;7.30;99.90;;;;;;5090817;28;20047;-82
2022/09/19 03:53:38;;;;;;;9.48;1.30;;;7.30;99.90;;;;;;5073130;28;20040;-81
2022/09/19 03:56:04;;;;;;;3.22;1.35;;;7.30;99.90;;;;;;5056512;28;20043;-83
2022/09/19 03:58:34;;;;;;;4.00;1.35;;;7.30;99.90;;;;;;5057350;28;20034;-83
2022/09/19 04:01:01;;;;;;;1.67;1.13;;;7.30;99.90;;;;;;5037474;28;20036;-82
2022/09/19 04:03:27;;;;;;;12.07;1.20;;;7.30;99.90;;;;;;5056839;28;20024;-83
2022/09/19 04:05:54;;;;;;;5.57;1.40;;;7.30;99.90;;;;;;5057442;28;20039;-83
2022/09/19 04:08:21;;;;;;;3.58;1.05;;;7.30;99.90;;;;;;5057702;28;20073;-83
2022/09/19 04:10:47;;;;;;;14.00;1.20;;;7.40;99.90;;;;;;5073171;28;20115;-83
2022/09/19 04:13:13;;;;;;;1.27;1.17;;;7.40;99.90;;;;;;5072900;28;20119;-82
2022/09/19 04:15:41;;;;;;;0.90;0.90;;;7.40;99.90;;;;;;5056425;28;20091;-83
2022/09/19 04:18:09;;;;;;;1.10;1.00;;;7.40;99.90;;;;;;5041021;28;20036;-83
2022/09/19 04:20:36;;;;;;;24.60;1.58;;;7.40;99.90;;;;;;5055338;28;20115;-83
2022/09/19 04:23:20;;;;;;;2.95;1.00;;;7.40;99.90;;;;;;5062664;28;20818;-83
2022/09/19 04:25:55;;;;;;;8.00;0.88;;;7.40;99.90;;;;;;5067707;28;20040;-82
2022/09/19 04:28:31;;;;;;;1.33;0.77;;;7.40;99.90;;;;;;5058819;28;20043;-83
2022/09/19 04:30:57;;;;;;;4.68;1.00;;;7.40;99.90;;;;;;5039629;28;20028;-83
2022/09/19 04:33:23;;;;;;;4.03;0.70;;;7.40;99.90;;;;;;5055517;28;20134;-83
2022/09/19 04:35:50;;;;;;;0.80;0.70;;;7.40;99.90;;;;;;5038235;28;20468;-85
2022/09/19 04:38:18;;;;;;;15.68;1.00;;;7.40;99.90;;;;;;5049732;28;20028;-83
2022/09/19 04:40:48;;;;;;;1.67;0.68;;;7.40;99.90;;;;;;5041637;28;20032;-83
2022/09/19 04:43:16;;;;;;;6.80;0.77;;;7.40;99.90;;;;;;5071882;28;20169;-82
2022/09/19 04:45:49;;;;;;;6.03;0.90;;;7.40;99.90;;;;;;5039608;28;20531;-83
2022/09/19 04:48:23;;;;;;;0.93;0.80;;;7.40;99.90;;;;;;5054751;28;20040;-82
2022/09/19 04:50:52;;;;;;;14.10;1.05;;;7.40;99.90;;;;;;5046558;28;20020;-82
2022/09/19 04:53:23;;;;;;;1.08;0.60;;;7.50;99.90;;;;;;5072644;28;20500;-83
2022/09/19 04:55:51;;;;;;;0.73;0.73;;;7.50;99.90;;;;;;5067380;28;20032;-82
2022/09/19 04:58:18;;;;;;;5.35;0.80;;;7.50;99.90;;;;;;5078904;28;20064;-82
2022/09/19 05:00:53;;;;;;;0.57;0.57;;;7.50;99.90;;;;;;5056381;28;20032;-82
2022/09/19 05:03:24;;;;;;;14.20;1.25;;;7.50;99.90;;;;;;5050912;28;20060;-81
2022/09/19 05:05:52;;;;;;;1.02;0.57;;;7.50;99.90;;;;;;5056058;28;20036;-81
2022/09/19 05:08:28;;;;;;;0.50;0.50;;;7.50;99.90;;;;;;5073884;28;20020;-81
2022/09/19 05:11:00;;;;;;;0.70;0.70;;;7.50;99.90;;;;;;5043684;28;20043;-81
2022/09/19 05:13:28;;;;;;;7.90;0.90;;;7.50;99.90;;;;;;5077331;28;21981;-81
2022/09/19 05:15:55;;;;;;;2.30;0.60;;;7.50;99.90;;;;;;5053618;28;20091;-81
2022/09/19 05:18:22;;;;;;;1.27;0.80;;;7.50;99.90;;;;;;5084050;28;20081;-80
2022/09/19 05:20:53;;;;;;;4.68;0.88;;;7.60;99.90;;;;;;5072332;28;20032;-81
2022/09/19 05:23:20;;;;;;;22.10;1.05;;;7.60;99.90;;;;;;5082269;28;20455;-81
2022/09/19 05:25:45;;;;;;;18.60;1.15;;;7.60;99.90;;;;;;5056021;28;20102;-82
2022/09/19 05:28:11;;;;;;;1.90;0.63;;;7.60;99.90;;;;;;5070723;28;20037;-80
2022/09/19 05:30:52;;;;;;;101.80;5.55;;;7.60;99.90;;;;;;5065875;28;20087;-81
2022/09/19 05:33:25;;;;;;;1.05;0.95;;;7.60;99.90;;;;;;5053120;28;20036;-80
2022/09/19 05:35:51;;;;;;;2.65;1.05;;;7.60;99.90;;;;;;5061654;28;20122;-80
2022/09/19 05:38:41;;;;;;;1.73;0.90;;;7.60;99.90;;;;;;5056055;28;20056;-81
2022/09/19 05:41:34;;;;;;;17.08;1.48;;;7.60;99.90;;;;;;5080350;28;20061;-82
2022/09/19 05:44:07;;;;;;;1.38;1.10;;;7.70;99.90;;;;;;5047511;28;20748;-83
2022/09/19 05:46:32;;;;;;;1.20;0.73;;;7.70;99.90;;;;;;5052420;28;20036;-83
2022/09/19 05:48:59;;;;;;;4.15;1.00;;;7.70;99.90;;;;;;5034949;28;20082;-80
2022/09/19 05:51:25;;;;;;;1.15;0.93;;;7.70;99.90;;;;;;5053938;28;20032;-82
2022/09/19 05:53:55;;;;;;;8.82;1.00;;;7.80;99.90;;;;;;5046950;28;20040;-81
2022/09/19 05:56:54;;;;;;;1.23;1.00;;;7.80;99.90;;;;;;5061682;28;20040;-81
2022/09/19 05:59:21;;;;;;;1.10;1.00;;;7.80;99.90;;;;;;5051370;28;20032;-82
2022/09/19 06:01:49;;;;;;;3.65;0.95;;;7.80;99.90;;;;;;5034377;28;20020;-82
2022/09/19 06:04:45;;;;;;;2.40;0.93;;;7.80;99.90;;;;;;5081782;28;20127;-84
2022/09/19 06:07:12;;;;;;;3.30;1.20;;;7.80;99.90;;;;;;5043346;28;20069;-83
2022/09/19 06:09:37;;;;;;;5.70;1.30;;;7.90;99.90;;;;;;5049300;28;20181;-83
2022/09/19 06:12:04;;;;;;;2.63;1.05;;;7.90;99.90;;;;;;5073427;28;20031;-83
2022/09/19 06:14:31;;;;;;;1.10;1.00;;;8.00;99.90;;;;;;5069118;28;20036;-82
2022/09/19 06:17:00;;;;;;;1.65;0.90;;;8.10;99.90;;;;;;5053544;28;20086;-83
2022/09/19 06:19:49;;;;;;;2.45;0.90;;;8.10;99.90;;;;;;5056496;28;20134;-83
2022/09/19 06:22:44;;;;;;;1.40;1.30;;;8.20;99.90;;;;;;5076837;28;20330;-83
2022/09/19 06:25:14;;;;;;;4.75;1.02;;;8.20;99.90;;;;;;5036971;28;20043;-84
2022/09/19 06:27:44;;;;;;;13.10;1.15;;;8.30;99.90;;;;;;5074581;28;20028;-83
2022/09/19 06:30:10;;;;;;;1.35;1.25;;;8.40;99.90;;;;;;5042728;28;20056;-82
2022/09/19 06:32:51;;;;;;;7.38;1.80;;;8.50;99.90;;;;;;5051666;28;20024;-82
2022/09/19 06:35:19;;;;;;;3.08;1.90;;;8.80;99.90;;;;;;5056850;28;20058;-84
2022/09/19 06:37:45;;;;;;;2.72;1.52;;;9.20;99.90;;;;;;5045371;28;20024;-83
2022/09/19 06:40:11;;;;;;;1.58;1.05;;;9.50;99.90;;;;;;5063086;28;20731;-84
2022/09/19 06:43:03;;;;;;;4.40;1.17;;;9.60;99.90;;;;;;5066556;28;20071;-84
2022/09/19 06:45:47;;;;;;;1.27;1.17;;;9.60;99.90;;;;;;5069087;28;20051;-83
2022/09/19 06:48:34;;;;;;;;;;;9.50;99.90;;;;;;5055329;28;20090;-83
2022/09/19 06:51:08;;;;;;;2.08;0.93;;;9.40;99.90;;;;;;5070910;28;19965;-82
2022/09/19 06:53:34;;;;;;;3.15;1.17;;;9.40;99.90;;;;;;5070139;28;20435;-83
2022/09/19 06:56:03;;;;;;;4.65;0.90;;;9.30;99.90;;;;;;5040091;28;20028;-81
2022/09/19 06:58:29;;;;;;;2.83;1.13;;;9.30;99.90;;;;;;5054503;28;20028;-83
2022/09/19 07:00:55;;;;;;;1.90;1.10;;;9.30;99.90;;;;;;5060830;28;20078;-83
2022/09/19 07:03:21;;;;;;;1.85;1.00;;;9.20;99.90;;;;;;5056127;28;20033;-83
2022/09/19 07:05:59;;;;;;;4.47;1.13;;;9.10;99.90;;;;;;5059886;28;20548;-83
2022/09/19 07:08:29;;;;;;;4.63;1.00;;;9.10;99.90;;;;;;5050134;28;20031;-81
2022/09/19 07:10:57;;;;;;;11.07;0.90;;;9.10;99.90;;;;;;5042338;28;20393;-83
2022/09/19 07:13:23;;;;;;;1.67;0.90;;;9.10;99.90;;;;;;5064952;28;20122;-83
2022/09/19 07:16:01;;;;;;;1.45;0.93;;;9.10;99.90;;;;;;5070492;28;20039;-83
2022/09/19 07:18:27;;;;;;;2.75;1.15;;;9.10;99.90;;;;;;5034431;28;20631;-83
2022/09/19 07:20:53;;;;;;;1.45;1.17;;;9.10;99.90;;;;;;5042069;28;20028;-83
2022/09/19 07:23:28;;;;;;;36.80;1.85;;;9.20;99.90;;;;;;5049836;28;20567;-82
2022/09/19 07:26:26;;;;;;;1.27;0.95;;;9.30;99.90;;;;;;5053818;28;20044;-83
2022/09/19 07:28:52;;;;;;;1.30;1.02;;;9.30;99.90;;;;;;5052762;28;20035;-83
2022/09/19 07:31:18;;;;;;;4.85;1.10;;;9.20;99.90;;;;;;5042420;28;20040;-82
2022/09/19 07:33:45;;;;;;;1.80;1.10;;;9.20;99.90;;;;;;5049802;28;20127;-83
2022/09/19 07:36:12;;;;;;;1.35;1.25;;;9.20;99.90;;;;;;5072562;28;20678;-83
2022/09/19 07:38:40;;;;;;;1.38;1.20;;;9.30;99.90;;;;;;5077045;28;20110;-82
2022/09/19 07:41:24;;;;;;;1.38;1.17;;;9.20;99.90;;;;;;5087613;28;20027;-83
2022/09/19 07:44:04;;;;;;;1.90;1.13;;;9.20;99.90;;;;;;5073555;28;20024;-82
2022/09/19 07:47:26;;;;;;;2.28;1.23;;;9.20;99.90;;;;;;5069141;28;20024;-82
2022/09/19 07:49:54;;;;;;;1.90;1.13;;;9.20;99.90;;;;;;5064402;28;20020;-83
2022/09/19 07:52:41;;;;;;;1.88;1.10;;;9.20;99.90;;;;;;5057809;28;20032;-81
2022/09/19 07:55:11;;;;;;;3.70;1.23;;;9.20;99.90;;;;;;5059532;28;20491;-83
2022/09/19 07:57:38;;;;;;;1.20;1.10;;;9.30;99.90;;;;;;5072880;28;20554;-81
2022/09/19 08:00:06;;;;;;;2.05;0.98;;;9.30;99.90;;;;;;5077685;28;20522;-83
2022/09/19 08:02:38;;;;;;;1.92;1.10;;;9.30;99.90;;;;;;5070029;28;20389;-83
2022/09/19 08:05:07;;;;;;;2.00;0.93;;;9.40;99.90;;;;;;5054340;28;20100;-81
2022/09/19 08:07:33;;;;;;;3.42;1.48;;;9.50;99.90;;;;;;5053698;28;20025;-83
2022/09/19 08:10:01;;;;;;;1.83;1.30;;;9.60;99.90;;;;;;5039349;28;20050;-82
2022/09/19 08:12:30;;;;;;;2.88;1.30;;;9.80;99.90;;;;;;5055006;28;20032;-82
2022/09/19 08:15:15;;;;;;;2.20;1.10;;;9.80;99.90;;;;;;5069972;28;20112;-82
2022/09/19 08:17:54;;;;;;;1.38;1.27;;;9.90;99.90;;;;;;5071207;28;20037;-83
2022/09/19 08:20:20;;;;;;;1.70;1.10;;;10.00;99.90;;;;;;5063578;28;20023;-83
2022/09/19 08:22:46;;;;;;;3.95;1.58;;;10.10;99.90;;;;;;5033217;28;20393;-84
2022/09/19 08:25:11;;;;;;;1.73;1.08;;;10.20;99.90;;;;;;5051797;28;20058;-83
2022/09/19 08:27:42;;;;;;;1.50;1.02;;;10.30;99.90;;;;;;5054002;28;20561;-82
2022/09/19 08:30:09;;;;;;;3.30;1.30;;;10.30;99.90;;;;;;5041543;28;20059;-83
2022/09/19 08:32:36;;;;;;;1.25;0.90;;;10.40;99.90;;;;;;5052790;28;20031;-83
2022/09/19 08:35:03;;;;;;;2.17;1.05;;;10.50;99.90;;;;;;5064789;28;20194;-82
2022/09/19 08:37:30;;;;;;;3.85;1.17;;;10.60;99.90;;;;;;5056484;28;20024;-82
2022/09/19 08:43:20;;;;;;;2.22;1.20;;;10.60;99.90;;;;;;5061373;28;20032;-82
2022/09/19 08:46:06;;;;;;;1.70;1.10;;;10.70;99.90;;;;;;5073875;28;20040;-82
2022/09/19 08:49:10;;;;;;;3.20;1.27;;;10.80;99.90;;;;;;5073468;28;20032;-83
2022/09/19 08:51:53;;;;;;;5.15;0.80;;;10.90;99.90;;;;;;5088076;28;20029;-80
2022/09/19 08:54:26;;;;;;;1.77;1.20;;;10.90;99.90;;;;;;5064902;28;20496;-81
2022/09/19 08:56:52;;;;;;;1.45;1.13;;;11.00;99.90;;;;;;5091379;28;20028;-81
2022/09/19 08:59:23;;;;;;;1.70;0.90;;;11.10;99.90;;;;;;5056847;28;20043;-81
2022/09/19 09:02:09;;;;;;;3.13;1.20;;;11.20;99.90;;;;;;5089345;28;20028;-82
2022/09/19 09:04:40;;;;;;;2.00;1.00;;;11.20;99.90;;;;;;5076718;28;20050;-82
2022/09/19 09:07:25;;;;;;;2.80;0.77;;;11.20;99.90;;;;;;5094618;28;20337;-82
2022/09/19 09:10:23;;;;;;;1.90;0.77;;;11.20;99.90;;;;;;5083225;28;20044;-82
2022/09/19 09:13:08;;;;;;;0.80;0.80;;;11.30;99.90;;;;;;5069456;28;20129;-83
2022/09/19 09:15:58;;;;;;;1.92;0.90;;;11.30;99.90;;;;;;5083932;28;20110;-83
2022/09/19 09:18:46;;;;;;;4.03;0.85;;;11.40;99.90;;;;;;5080649;28;20499;-82
2022/09/19 09:21:31;;;;;;;2.33;0.80;;;11.40;99.90;;;;;;5069822;28;20024;-83
2022/09/19 09:24:05;;;;;;;1.48;1.00;;;11.50;99.90;;;;;;5068509;28;20322;-81
2022/09/19 09:26:43;;;;;;;2.13;1.38;;;11.50;99.90;;;;;;5091259;28;20400;-82
2022/09/19 09:29:16;;;;;;;2.17;1.10;;;11.40;99.90;;;;;;5057540;28;20078;-82
2022/09/19 09:32:14;;;;;;;0.98;0.90;;;11.50;99.90;;;;;;5081250;28;20031;-82
2022/09/19 09:35:32;;;;;;;3.92;0.90;;;11.60;99.90;;;;;;5072220;28;20633;-81
2022/09/19 09:38:11;;;;;;;1.58;0.93;;;11.70;99.90;;;;;;5064669;28;20036;-83
2022/09/19 09:43:44;;;;;;;3.70;0.80;;;12.00;99.90;;;;;;5079815;28;20025;-84
2022/09/19 09:46:18;;;;;;;1.95;0.70;;;12.00;99.90;;;;;;5064035;28;20043;-83
2022/09/19 09:48:44;;;;;;;2.05;0.70;;;12.00;99.90;;;;;;5071244;28;20548;-82
2022/09/19 09:51:49;;;;;;;2.10;0.70;;;11.90;99.90;;;;;;5073268;28;20023;-83
2022/09/19 09:57:40;;;;;;;3.88;0.90;;;11.50;99.90;;;;;;5084268;28;20035;-82
2022/09/19 10:03:34;;;;;;;5.45;0.82;;;11.40;99.90;;;;;;5071040;28;20495;-82
2022/09/19 10:06:15;;;;;;;0.82;0.60;;;11.30;99.90;;;;;;5061468;28;20040;-83
2022/09/19 10:09:01;;;;;;;1.02;0.88;;;11.30;99.90;;;;;;5071534;28;20036;-82
2022/09/19 10:11:35;;;;;;;4.03;0.93;;;11.30;99.90;;;;;;5069292;28;20105;-82
2022/09/19 10:14:02;;;;;;;0.98;0.70;;;11.30;99.90;;;;;;5064946;28;20086;-82
2022/09/19 10:16:33;;;;;;;0.70;0.60;;;11.20;99.90;;;;;;5080016;28;20029;-82
2022/09/19 10:19:27;;;;;;;1.15;0.80;;;11.30;99.90;;;;;;5070419;28;20032;-83
2022/09/19 10:21:54;;;;;;;7.65;3.90;;;11.40;99.90;;;;;;5090387;28;20025;-83
2022/09/19 10:24:40;;;;;;;2.88;1.35;;;11.40;99.90;;;;;;5058153;28;20106;-82
2022/09/19 10:27:31;;;;;;;1.25;0.85;;;11.30;99.90;;;;;;5082320;28;20087;-83
2022/09/19 10:30:01;;;;;;;1.73;0.85;;;11.20;99.90;;;;;;5076327;28;20090;-83
2022/09/19 10:32:37;;;;;;;0.95;0.73;;;11.20;99.90;;;;;;5082352;28;20024;-83
2022/09/19 10:35:34;;;;;;;2.33;1.00;;;11.10;99.90;;;;;;5074267;28;20107;-83
2022/09/19 10:38:13;;;;;;;1.85;0.90;;;11.10;99.90;;;;;;5060615;28;20124;-84
2022/09/19 10:40:57;;;;;;;1.10;1.00;;;11.10;99.90;;;;;;5070475;28;20055;-84
2022/09/19 10:43:46;;;;;;;1.75;1.23;;;11.10;99.90;;;;;;5044376;28;20021;-85
2022/09/19 10:46:41;;;;;;;1.13;0.80;;;11.10;99.90;;;;;;5049994;28;20047;-85
2022/09/19 10:49:30;;;;;;;2.25;1.67;;;11.10;99.90;;;;;;5085074;28;20047;-83
2022/09/19 10:52:00;;;;;;;1.50;0.90;;;11.00;99.90;;;;;;5055625;28;20020;-83
2022/09/19 10:54:31;;;;;;;2.83;1.13;;;11.10;99.90;;;;;;5058949;28;20032;-83
2022/09/19 10:57:01;;;;;;;5.85;1.13;;;11.30;99.90;;;;;;5065342;28;20449;-85
2022/09/19 10:59:40;;;;;;;7.13;1.50;;;11.50;99.90;;;;;;5052925;28;20035;-84
2022/09/19 11:02:25;;;;;;;2.15;1.40;;;11.80;99.90;;;;;;5065802;28;20139;-85
2022/09/19 11:05:03;;;;;;;5.70;1.60;;;11.90;99.90;;;;;;5065601;28;20024;-86
2022/09/19 11:07:50;;;;;;;1.60;1.50;;;12.00;99.90;;;;;;5082326;28;20091;-84
2022/09/19 11:10:33;;;;;;;3.72;1.80;;;12.20;99.90;;;;;;5048717;28;20033;-85
2022/09/19 11:13:14;;;;;;;2.90;1.40;;;12.30;99.90;;;;;;5083749;28;20024;-84
2022/09/19 11:16:19;;;;;;;2.28;1.48;;;12.30;99.90;;;;;;5084541;28;20051;-83
2022/09/19 11:18:54;;;;;;;3.15;1.40;;;12.40;99.90;;;;;;5056066;28;20236;-83
2022/09/19 11:21:32;;;;;;;3.38;1.35;;;12.50;99.90;;;;;;5086323;28;20025;-82
2022/09/19 11:24:44;;;;;;;1.52;1.15;;;12.50;99.90;;;;;;5064617;28;20533;-82
2022/09/19 11:27:36;;;;;;;2.30;1.20;;;12.60;99.90;;;;;;5060052;28;20077;-82
2022/09/19 11:30:22;;;;;;;1.20;1.10;;;12.60;99.90;;;;;;5074380;28;20019;-82
2022/09/19 11:33:10;;;;;;;1.30;1.15;;;12.60;99.90;;;;;;5077049;28;20028;-83
2022/09/19 11:36:07;;;;;;;2.38;1.30;;;12.60;99.90;;;;;;5081963;28;20032;-82
2022/09/19 11:39:03;;;;;;;3.38;1.08;;;12.70;99.90;;;;;;5069744;28;20024;-82
2022/09/19 11:41:40;;;;;;;2.40;0.90;;;12.60;99.90;;;;;;5081750;28;20028;-82
2022/09/19 11:44:42;;;;;;;2.22;1.30;;;12.60;99.90;;;;;;5060355;28;20055;-83
2022/09/19 11:47:49;;;;;;;1.05;0.95;;;12.50;99.90;;;;;;5066913;28;20046;-83
2022/09/19 11:50:50;;;;;;;2.75;1.30;;;12.40;99.90;;;;;;5068181;28;20495;-84
2022/09/19 11:53:23;;;;;;;2.40;1.10;;;12.50;99.90;;;;;;5065112;28;20020;-82
2022/09/19 11:56:26;;;;;;;2.72;1.30;;;12.60;99.90;;;;;;5063718;28;20762;-84
2022/09/19 11:59:17;;;;;;;2.53;1.67;;;12.60;99.90;;;;;;5058830;28;20107;-83
2022/09/19 12:02:25;;;;;;;2.03;1.20;;;12.60;99.90;;;;;;5089173;28;20024;-81
2022/09/19 12:05:22;;;;;;;3.22;1.20;;;12.50;99.90;;;;;;5082646;28;20036;-82
2022/09/19 12:08:04;;;;;;;1.52;0.95;;;12.60;99.90;;;;;;5067601;28;20468;-82
2022/09/19 12:10:54;;;;;;;1.40;0.98;;;12.60;99.90;;;;;;5077854;28;20030;-82
2022/09/19 12:13:33;;;;;;;1.95;1.10;;;12.70;99.90;;;;;;5066543;28;20032;-81
2022/09/19 12:16:10;;;;;;;2.38;1.35;;;12.70;99.90;;;;;;5062637;28;20024;-82
2022/09/19 12:18:45;;;;;;;2.03;1.23;;;12.80;99.90;;;;;;5054491;28;20043;-82
2022/09/19 12:21:15;;;;;;;1.90;1.10;;;12.90;99.90;;;;;;5060864;28;20555;-81
2022/09/19 12:26:40;;;;;;;1.65;1.00;;;13.10;99.90;;;;;;5076232;28;20040;-82
2022/09/19 12:29:18;;;;;;;2.92;1.05;;;13.10;99.90;;;;;;5077898;28;20082;-82
2022/09/19 12:31:58;;;;;;;1.73;0.90;;;13.00;99.90;;;;;;5070986;28;20117;-81
2022/09/19 12:34:44;;;;;;;2.08;1.20;;;13.00;99.90;;;;;;5070906;28;20107;-81
2022/09/19 12:37:35;;;;;;;5.50;1.77;;;12.80;99.90;;;;;;5069996;28;20028;-82
2022/09/19 12:40:19;;;;;;;3.08;1.10;;;12.80;99.90;;;;;;5057716;28;20040;-83
2022/09/19 12:43:32;;;;;;;2.92;1.13;;;12.70;99.90;;;;;;5085752;28;20068;-82
2022/09/19 12:46:35;;;;;;;3.42;1.30;;;12.80;99.90;;;;;;5052050;28;20580;-82
2022/09/19 12:49:35;;;;;;;3.50;1.10;;;12.70;99.90;;;;;;5077954;28;20024;-82
2022/09/19 12:52:11;;;;;;;3.13;1.40;;;12.70;99.90;;;;;;5069106;28;20051;-83
2022/09/19 12:54:45;;;;;;;4.32;1.33;;;12.80;99.90;;;;;;5068449;28;20063;-82
2022/09/19 12:57:46;;;;;;;1.58;1.38;;;12.80;99.90;;;;;;5071347;28;20054;-82
2022/09/19 13:00:13;;;;;;;5.10;1.50;;;12.80;99.90;;;;;;5070006;28;20512;-83
2022/09/19 13:02:48;;;;;;;2.45;1.30;;;13.00;99.90;;;;;;5051694;28;20034;-83
2022/09/19 13:05:36;;;;;;;6.28;1.52;;;13.10;99.90;;;;;;5038175;28;20032;-84
2022/09/19 13:08:02;;;;;;;1.42;1.33;;;13.10;99.90;;;;;;5074690;28;20429;-83
2022/09/19 13:10:49;;;;;;;1.77;1.25;;;13.00;99.90;;;;;;5074836;28;20035;-83
2022/09/19 13:13:29;;;;;;;6.85;1.60;;;12.90;99.90;;;;;;5092606;28;20032;-83
2022/09/19 13:16:09;;;;;;;2.50;1.33;;;12.80;99.90;;;;;;5094003;28;20050;-83
2022/09/19 13:24:50;;;;;;;3.63;1.42;;;12.60;99.90;;;;;;5082856;28;20568;-85
2022/09/19 13:27:16;;;;;;;4.28;1.30;;;12.70;99.90;;;;;;5073331;28;20392;-83
2022/09/19 13:29:45;;;;;;;3.40;1.13;;;12.90;99.90;;;;;;5071865;28;20032;-85
2022/09/19 13:32:52;;;;;;;3.35;1.60;;;12.90;99.90;;;;;;5066016;28;20024;-83
2022/09/19 13:35:22;;;;;;;3.10;1.40;;;12.90;99.90;;;;;;5065162;28;20165;-83
2022/09/19 13:37:52;;;;;;;4.93;1.52;;;12.90;99.90;;;;;;5072489;28;20036;-84
2022/09/19 13:40:27;;;;;;;3.92;1.33;;;12.90;99.90;;;;;;5053511;28;20032;-84
2022/09/19 13:43:14;;;;;;;3.90;1.40;;;12.90;99.90;;;;;;5060673;28;20030;-84
2022/09/19 13:45:49;;;;;;;1.27;1.13;;;13.00;99.90;;;;;;5083921;28;20032;-83
2022/09/19 13:48:58;;;;;;;1.60;1.10;;;13.00;99.90;;;;;;5063977;28;20503;-83
2022/09/19 13:51:36;;;;;;;2.30;1.25;;;13.00;99.90;;;;;;5086305;28;20444;-85
2022/09/19 13:54:20;;;;;;;5.07;1.50;;;12.80;99.90;;;;;;5084756;28;20043;-84
2022/09/19 13:57:03;;;;;;;2.35;1.23;;;12.60;99.90;;;;;;5088895;28;20111;-84
2022/09/19 13:59:34;;;;;;;2.38;1.77;;;12.50;99.90;;;;;;5083299;28;20028;-82
2022/09/19 14:02:03;;;;;;;3.13;1.48;;;12.30;99.90;;;;;;5069062;28;20415;-82
2022/09/19 14:04:56;;;;;;;3.33;1.40;;;12.10;99.90;;;;;;5075093;28;20041;-82
2022/09/19 14:08:01;;;;;;;3.50;1.60;;;12.00;99.90;;;;;;5083097;28;20035;-82
2022/09/19 14:11:00;;;;;;;3.70;1.95;;;11.90;99.90;;;;;;5050700;28;20032;-82